Princeton, Oregon
Current Conditions -  °F | °C
As of 4:53 AM on Friday 24 Oct 2014 (Local Time) from KBNO Reporting Station
Light Rain Light Rain  
Wind Chill: 44°   Ceiling: 1200
Heat Index: 44°   Visibility: 4mi
Dew Point: 43°   Wind: 0mph
Humidity: 96%   Direction: NA
Pressure: 30.08"   Gusts: NA
Location:  43.25°N, 118.58°W
Report Text: KBNO 241153Z AUTO 00000KT 4SM -RA BR BKN012 OVC020 07/06 A3008 RMK AO2 SLP183 P0004 60010 70056 T00670061 10072 20061 55002
Loading
Personal Weather Stations






























Interactive Weather Map New forecast layout! Learn more

10-Day Weather Forecast

Advertisements
Track Severe Weather on mobile